createdAt,value
2023-02-08T00:01:20.235Z,103650.28
2023-02-08T00:03:48.245Z,103652.14
2023-02-08T00:06:17.426Z,103651.05
2023-02-08T00:08:45.836Z,103655.45
2023-02-08T00:11:13.808Z,103660.36
2023-02-08T00:13:43.003Z,103658.91
2023-02-08T00:16:13.436Z,103655.02
2023-02-08T00:18:42.405Z,103656.41
2023-02-08T00:21:16.580Z,103657.64
2023-02-08T00:23:44.795Z,103658.05
2023-02-08T00:26:13.455Z,103653.59
2023-02-08T00:28:42.304Z,103653.83
2023-02-08T00:31:10.211Z,103651.55
2023-02-08T00:33:38.406Z,103652.61
2023-02-08T00:36:08.744Z,103651.09
2023-02-08T00:38:37.169Z,103655.02
2023-02-08T00:41:05.232Z,103654.79
2023-02-08T00:43:33.200Z,103654.17
2023-02-08T00:46:01.587Z,103654.30
2023-02-08T00:48:30.178Z,103651.30
2023-02-08T00:51:06.990Z,103647.94
2023-02-08T00:53:37.275Z,103647.44
2023-02-08T00:56:08.035Z,103649.23
2023-02-08T00:58:36.385Z,103648.16
2023-02-08T01:01:05.951Z,103650.73
2023-02-08T01:03:39.604Z,103652.66
2023-02-08T01:06:10.169Z,103654.98
2023-02-08T01:08:38.509Z,103656.94
2023-02-08T01:11:12.032Z,103656.92
2023-02-08T01:13:40.725Z,103665.07
2023-02-08T01:16:22.240Z,103663.69
2023-02-08T01:18:52.624Z,103663.15
2023-02-08T01:21:23.874Z,103663.50
2023-02-08T01:23:52.562Z,103662.08
2023-02-08T01:26:21.718Z,103667.12
2023-02-08T01:28:51.302Z,103671.61
2023-02-08T01:31:22.360Z,103672.52
2023-02-08T01:33:50.707Z,103677.95
2023-02-08T01:36:18.827Z,103677.05
2023-02-08T01:38:47.581Z,103676.36
2023-02-08T01:41:37.540Z,103674.80
2023-02-08T01:44:11.908Z,103675.92
2023-02-08T01:46:42.382Z,103672.09
2023-02-08T01:49:22.700Z,103668.92
2023-02-08T01:51:55.976Z,103669.79
2023-02-08T01:54:30.547Z,103670.23
2023-02-08T01:56:59.094Z,103670.19
2023-02-08T01:59:33.879Z,103674.73
2023-02-08T02:02:04.818Z,103673.33
2023-02-08T02:04:32.857Z,103670.95
2023-02-08T02:07:03.928Z,103671.49
2023-02-08T02:09:40.191Z,103675.92
2023-02-08T02:12:09.650Z,103675.41
2023-02-08T02:14:38.903Z,103674.73
2023-02-08T02:17:07.405Z,103673.98
2023-02-08T02:20:03.564Z,103675.21
2023-02-08T02:22:31.372Z,103674.17
2023-02-08T02:25:30.500Z,103677.02
2023-02-08T02:28:53.055Z,103675.54
2023-02-08T02:31:57.406Z,103674.34
2023-02-08T02:35:01.787Z,103673.24
2023-02-08T02:37:44.799Z,103671.94
2023-02-08T02:40:32.084Z,103671.45
2023-02-08T02:43:30.006Z,103677.55
2023-02-08T02:46:19.827Z,103676.55
2023-02-08T02:48:50.573Z,103673.73
2023-02-08T02:51:27.415Z,103671.63
2023-02-08T02:54:17.277Z,103675.16
2023-02-08T02:56:49.161Z,103674.66
2023-02-08T02:59:18.282Z,103675.95
2023-02-08T03:01:47.168Z,103673.48
2023-02-08T03:04:18.168Z,103672.59
2023-02-08T03:06:49.010Z,103675.54
2023-02-08T03:09:37.520Z,103675.80
2023-02-08T03:12:33.640Z,103676.48
2023-02-08T03:15:19.684Z,103677.14
2023-02-08T03:18:19.449Z,103685.33
2023-02-08T03:21:17.850Z,103689.49
2023-02-08T03:23:51.773Z,103696.20
2023-02-08T03:26:32.063Z,103698.45
2023-02-08T03:29:30.895Z,103698.93
2023-02-08T03:32:22.171Z,103695.14
2023-02-08T03:35:18.133Z,103693.84
2023-02-08T03:37:55.356Z,103693.84
2023-02-08T03:40:27.090Z,103698.77
2023-02-08T03:43:00.245Z,103703.88
2023-02-08T03:45:45.682Z,103697.95
2023-02-08T03:48:14.507Z,103699.48
2023-02-08T03:50:47.283Z,103697.22
2023-02-08T03:53:22.516Z,103698.94
2023-02-08T03:55:58.196Z,103695.59
2023-02-08T03:58:34.690Z,103698.42
2023-02-08T04:01:20.161Z,103697.17
2023-02-08T04:03:53.178Z,103698.90
2023-02-08T04:06:22.521Z,103702.42
2023-02-08T04:08:50.654Z,103700.77
2023-02-08T04:11:18.643Z,103703.37
2023-02-08T04:13:46.530Z,103703.19
2023-02-08T04:16:14.636Z,103706.73
2023-02-08T04:18:43.010Z,103699.21
2023-02-08T04:21:10.970Z,103701.52
2023-02-08T04:23:38.989Z,103700.65
2023-02-08T04:26:08.885Z,103701.19
2023-02-08T04:28:36.850Z,103702.98
2023-02-08T04:31:05.055Z,103705.44
2023-02-08T04:33:32.970Z,103708.30
2023-02-08T04:36:00.835Z,103705.61
2023-02-08T04:38:28.749Z,103705.91
2023-02-08T04:40:56.716Z,103705.14
2023-02-08T04:43:24.933Z,103702.71
2023-02-08T04:45:52.936Z,103704.17
2023-02-08T04:48:21.272Z,103704.38
2023-02-08T04:50:49.124Z,103707.44
2023-02-08T04:53:17.198Z,103706.09
2023-02-08T04:55:45.232Z,103709.27
2023-02-08T04:58:13.165Z,103710.50
2023-02-08T05:00:41.508Z,103706.34
2023-02-08T05:03:10.359Z,103714.84
2023-02-08T05:05:38.406Z,103715.88
2023-02-08T05:08:06.618Z,103716.61
2023-02-08T05:10:34.761Z,103720.13
2023-02-08T05:13:02.924Z,103722.02
2023-02-08T05:15:31.001Z,103721.63
2023-02-08T05:17:58.833Z,103722.86
2023-02-08T05:20:26.850Z,103723.22
2023-02-08T05:22:54.844Z,103725.34
2023-02-08T05:25:23.114Z,103726.61
2023-02-08T05:27:51.395Z,103728.55
2023-02-08T05:30:19.660Z,103725.79
2023-02-08T05:32:47.666Z,103727.53
2023-02-08T05:35:15.730Z,103728.57
2023-02-08T05:37:43.740Z,103723.77
2023-02-08T05:40:13.307Z,103726.41
2023-02-08T05:42:42.471Z,103726.89
2023-02-08T05:45:10.335Z,103729.67
2023-02-08T05:47:38.226Z,103732.75
2023-02-08T05:50:06.834Z,103733.45
2023-02-08T05:52:34.755Z,103732.55
2023-02-08T05:55:02.751Z,103732.39
2023-02-08T05:57:33.606Z,103726.23
2023-02-08T06:00:05.510Z,103725.41
2023-02-08T06:02:34.337Z,103724.05
2023-02-08T06:05:02.195Z,103722.15
2023-02-08T06:07:30.250Z,103725.37
2023-02-08T06:09:58.101Z,103729.80
2023-02-08T06:12:26.122Z,103732.38
2023-02-08T06:14:53.886Z,103735.00
2023-02-08T06:17:21.746Z,103735.65
2023-02-08T06:19:49.683Z,103736.51
2023-02-08T06:22:17.687Z,103737.91
2023-02-08T06:24:45.622Z,103740.62
2023-02-08T06:27:13.631Z,103741.15
2023-02-08T06:29:41.533Z,103748.94
2023-02-08T06:32:09.653Z,103749.83
2023-02-08T06:34:37.573Z,103748.91
2023-02-08T06:37:05.734Z,103753.33
2023-02-08T06:39:34.294Z,103753.48
2023-02-08T06:42:02.256Z,103755.16
2023-02-08T06:44:30.287Z,103759.36
2023-02-08T06:46:58.157Z,103759.52
2023-02-08T06:49:25.966Z,103763.02
2023-02-08T06:51:54.027Z,103766.88
2023-02-08T06:54:21.906Z,103769.00
2023-02-08T06:56:49.901Z,103774.42
2023-02-08T06:59:17.808Z,103769.80
2023-02-08T07:01:45.757Z,103769.09
2023-02-08T07:04:13.685Z,103771.70
2023-02-08T07:06:41.541Z,103771.30
2023-02-08T07:09:09.394Z,103770.73
2023-02-08T07:11:37.351Z,103774.41
2023-02-08T07:14:05.457Z,103776.86
2023-02-08T07:16:33.386Z,103786.55
2023-02-08T07:19:01.389Z,103783.55
2023-02-08T07:21:29.350Z,103782.14
2023-02-08T07:23:57.283Z,103784.19
2023-02-08T07:26:25.091Z,103783.95
2023-02-08T07:28:52.865Z,103786.88
2023-02-08T07:31:20.832Z,103785.77
2023-02-08T07:33:49.502Z,103780.97
2023-02-08T07:36:17.322Z,103773.89
2023-02-08T07:38:45.235Z,103778.58
2023-02-08T07:41:14.860Z,103776.22
2023-02-08T07:43:43.256Z,103771.90
2023-02-08T07:46:20.892Z,103768.95
2023-02-08T07:48:52.868Z,103763.44
2023-02-08T07:51:20.814Z,103756.04
2023-02-08T07:53:48.873Z,103753.48
2023-02-08T07:56:17.513Z,103757.04
2023-02-08T07:58:46.661Z,103756.26
2023-02-08T08:01:22.260Z,103754.65
2023-02-08T08:03:52.423Z,103752.35
2023-02-08T08:06:22.013Z,103752.16
2023-02-08T08:08:50.770Z,103750.91
2023-02-08T08:11:20.843Z,103747.89
2023-02-08T08:13:48.961Z,103749.50
2023-02-08T08:16:17.424Z,103744.60
2023-02-08T08:18:45.955Z,103745.52
2023-02-08T08:21:15.497Z,103743.40
2023-02-08T08:23:43.590Z,103741.81
2023-02-08T08:26:18.751Z,103743.83
2023-02-08T08:28:47.455Z,103743.34
2023-02-08T08:31:21.539Z,103748.08
2023-02-08T08:33:50.611Z,103751.27
2023-02-08T08:36:18.643Z,103750.59
2023-02-08T08:38:46.712Z,103754.46
2023-02-08T08:41:22.454Z,103757.63
2023-02-08T08:43:50.574Z,103763.44
2023-02-08T08:46:18.564Z,103762.21
2023-02-08T08:48:46.899Z,103759.44
2023-02-08T08:51:15.234Z,103760.29
2023-02-08T08:53:43.332Z,103763.05
2023-02-08T08:56:11.843Z,103772.13
2023-02-08T08:58:40.094Z,103777.22
2023-02-08T09:01:07.981Z,103778.27
2023-02-08T09:03:36.203Z,103778.38
2023-02-08T09:06:04.086Z,103775.80
2023-02-08T09:08:32.077Z,103776.58
2023-02-08T09:11:11.742Z,103779.88
2023-02-08T09:13:40.172Z,103782.28
2023-02-08T09:16:15.002Z,103777.08
2023-02-08T09:18:44.215Z,103768.95
2023-02-08T09:21:18.772Z,103768.11
2023-02-08T09:23:50.011Z,103769.33
2023-02-08T09:26:19.885Z,103774.79
2023-02-08T09:28:48.276Z,103783.04
2023-02-08T09:31:21.164Z,103789.28
2023-02-08T09:33:54.342Z,103790.09
2023-02-08T09:36:24.424Z,103788.65
2023-02-08T09:39:00.255Z,103792.61
2023-02-08T09:41:37.021Z,103789.17
2023-02-08T09:44:26.409Z,103782.39
2023-02-08T09:47:08.733Z,103780.48
2023-02-08T09:49:43.586Z,103781.14
2023-02-08T09:52:16.517Z,103774.19
2023-02-08T09:54:54.885Z,103770.42
2023-02-08T09:57:28.853Z,103767.02
2023-02-08T10:00:01.839Z,103768.38
2023-02-08T10:02:32.797Z,103768.02
2023-02-08T10:05:29.918Z,103767.04
2023-02-08T10:08:00.581Z,103772.50
2023-02-08T10:10:55.519Z,103771.42
2023-02-08T10:13:42.545Z,103772.86
2023-02-08T10:16:32.637Z,103766.77
2023-02-08T10:19:18.695Z,103762.35
2023-02-08T10:22:07.578Z,103760.41
2023-02-08T10:24:38.480Z,103759.69
2023-02-08T10:27:08.974Z,103753.33
2023-02-08T10:30:04.829Z,103757.16
2023-02-08T10:32:51.467Z,103754.08
2023-02-08T10:35:28.987Z,103750.66
2023-02-08T10:37:57.054Z,103746.34
2023-02-08T10:40:35.955Z,103744.84
2023-02-08T10:43:26.942Z,103742.40
2023-02-08T10:46:20.463Z,103745.12
2023-02-08T10:49:16.654Z,103738.90
2023-02-08T10:51:46.376Z,103737.50
2023-02-08T10:54:16.256Z,103735.54
2023-02-08T10:56:57.694Z,103731.63
2023-02-08T10:59:37.536Z,103727.55
2023-02-08T11:02:29.063Z,103727.09
2023-02-08T11:05:05.573Z,103726.48
2023-02-08T11:07:36.471Z,103721.95
2023-02-08T11:10:25.700Z,103720.16
2023-02-08T11:12:56.764Z,103721.31
2023-02-08T11:15:37.429Z,103724.71
2023-02-08T11:18:07.184Z,103720.89
2023-02-08T11:20:40.462Z,103714.08
2023-02-08T11:23:30.156Z,103709.77
2023-02-08T11:26:30.959Z,103707.78
2023-02-08T11:29:17.976Z,103704.84
2023-02-08T11:31:55.440Z,103708.17
2023-02-08T11:34:26.327Z,103705.98
2023-02-08T11:36:55.985Z,103698.45
2023-02-08T11:39:40.514Z,103704.82
2023-02-08T11:42:26.317Z,103704.23
2023-02-08T11:44:57.170Z,103707.95
2023-02-08T11:47:30.720Z,103707.77
2023-02-08T11:50:06.169Z,103704.87
2023-02-08T11:52:38.290Z,103707.13
2023-02-08T11:55:18.674Z,103708.70
2023-02-08T11:58:01.113Z,103707.88
2023-02-08T12:00:35.341Z,103696.33
2023-02-08T12:03:23.853Z,103701.55
2023-02-08T12:06:13.590Z,103700.64
2023-02-08T12:08:54.559Z,103700.81
2023-02-08T12:11:43.948Z,103696.29
2023-02-08T12:14:21.319Z,103691.67
2023-02-08T12:17:10.255Z,103692.74
2023-02-08T12:20:10.301Z,103689.27
2023-02-08T12:22:44.833Z,103688.88
2023-02-08T12:25:28.178Z,103679.47
2023-02-08T12:28:03.684Z,103675.28
2023-02-08T12:30:43.993Z,103672.54
2023-02-08T12:33:58.701Z,103674.86
2023-02-08T12:36:41.545Z,103681.29
2023-02-08T12:39:53.843Z,103678.14
2023-02-08T12:42:26.198Z,103675.16
2023-02-08T12:45:33.041Z,103667.77
2023-02-08T12:48:19.652Z,103670.59
2023-02-08T12:50:59.266Z,103669.48
2023-02-08T12:53:49.082Z,103664.95
2023-02-08T12:56:23.337Z,103657.09
2023-02-08T12:59:08.254Z,103659.40
2023-02-08T13:01:47.463Z,103659.61
2023-02-08T13:04:22.894Z,103661.34
2023-02-08T13:06:59.360Z,103664.15
2023-02-08T13:09:35.517Z,103662.38
2023-02-08T13:12:19.548Z,103668.27
2023-02-08T13:14:52.685Z,103670.02
2023-02-08T13:17:51.711Z,103672.00
2023-02-08T13:20:30.972Z,103661.92
2023-02-08T13:23:11.337Z,103660.95
2023-02-08T13:25:43.157Z,103660.08
2023-02-08T13:28:19.780Z,103653.63
2023-02-08T13:31:07.216Z,103653.09
2023-02-08T13:33:59.292Z,103648.29
2023-02-08T13:36:40.506Z,103641.05
2023-02-08T13:39:35.177Z,103643.23
2023-02-08T13:42:06.264Z,103640.95
2023-02-08T13:44:38.547Z,103631.84
2023-02-08T13:47:08.052Z,103637.55
2023-02-08T13:49:51.223Z,103635.54
2023-02-08T13:52:46.957Z,103633.28
2023-02-08T13:55:32.152Z,103633.94
2023-02-08T13:58:04.325Z,103628.05
2023-02-08T14:00:35.565Z,103626.95
2023-02-08T14:03:15.519Z,103626.14
2023-02-08T14:05:53.375Z,103627.31
2023-02-08T14:08:23.629Z,103625.45
2023-02-08T14:11:30.463Z,103617.69
2023-02-08T14:13:58.338Z,103619.89
2023-02-08T14:16:40.749Z,103622.91
2023-02-08T14:19:20.705Z,103618.60
2023-02-08T14:22:07.014Z,103618.47
2023-02-08T14:24:59.809Z,103615.75
2023-02-08T14:27:39.816Z,103614.41
2023-02-08T14:30:17.138Z,103613.10
2023-02-08T14:33:05.190Z,103609.66
2023-02-08T14:35:37.648Z,103608.64
2023-02-08T14:38:23.971Z,103601.80
2023-02-08T14:41:02.080Z,103603.83
2023-02-08T14:43:42.589Z,103602.21
2023-02-08T14:46:43.322Z,103600.40
2023-02-08T14:49:17.256Z,103599.44
2023-02-08T14:52:02.957Z,103599.48
2023-02-08T14:54:37.613Z,103596.04
2023-02-08T14:57:28.098Z,103594.84
2023-02-08T15:00:00.619Z,103599.33
2023-02-08T15:02:32.674Z,103598.77
2023-02-08T15:05:09.414Z,103592.54
2023-02-08T15:07:47.165Z,103591.38
2023-02-08T15:10:17.201Z,103589.40
2023-02-08T15:12:51.706Z,103583.03
2023-02-08T15:15:28.883Z,103584.32
2023-02-08T15:17:57.975Z,103579.64
2023-02-08T15:20:32.117Z,103575.82
2023-02-08T15:23:19.982Z,103573.94
2023-02-08T15:26:06.653Z,103574.54
2023-02-08T15:28:36.728Z,103565.15
2023-02-08T15:31:09.631Z,103564.21
2023-02-08T15:33:39.573Z,103559.88
2023-02-08T15:36:22.701Z,103557.14
2023-02-08T15:38:51.084Z,103546.58
2023-02-08T15:41:31.692Z,103543.70
2023-02-08T15:44:30.145Z,103546.20
2023-02-08T15:47:04.489Z,103544.25
2023-02-08T15:49:37.548Z,103541.66
2023-02-08T15:52:06.381Z,103541.79
2023-02-08T15:54:34.936Z,103540.61
2023-02-08T15:57:08.010Z,103544.38
2023-02-08T15:59:39.229Z,103539.11
2023-02-08T16:02:26.171Z,103536.98
2023-02-08T16:04:55.633Z,103538.49
2023-02-08T16:07:29.440Z,103537.73
2023-02-08T16:09:58.141Z,103538.80
2023-02-08T16:12:28.923Z,103539.27
2023-02-08T16:14:57.055Z,103539.33
2023-02-08T16:17:37.758Z,103540.02
2023-02-08T16:20:22.818Z,103533.98
2023-02-08T16:22:59.924Z,103532.91
2023-02-08T16:25:37.885Z,103533.83
2023-02-08T16:28:06.154Z,103534.37
2023-02-08T16:30:34.580Z,103535.52
2023-02-08T16:33:08.056Z,103534.90
2023-02-08T16:35:38.814Z,103536.00
2023-02-08T16:38:10.244Z,103540.39
2023-02-08T16:40:38.151Z,103538.40
2023-02-08T16:43:20.222Z,103537.82
2023-02-08T16:46:16.552Z,103538.44
2023-02-08T16:48:48.899Z,103536.02
2023-02-08T16:51:24.704Z,103537.66
2023-02-08T16:53:56.738Z,103538.23
2023-02-08T16:56:25.068Z,103540.17
2023-02-08T16:58:53.342Z,103539.28
2023-02-08T17:01:26.414Z,103536.48
2023-02-08T17:03:54.845Z,103532.85
2023-02-08T17:06:37.557Z,103534.89
2023-02-08T17:09:09.039Z,103538.50
2023-02-08T17:11:37.868Z,103538.59
2023-02-08T17:14:10.151Z,103541.30
2023-02-08T17:16:40.074Z,103542.38
2023-02-08T17:19:16.572Z,103544.05
2023-02-08T17:21:44.989Z,103540.21
2023-02-08T17:24:12.750Z,103533.92
2023-02-08T17:26:44.023Z,103528.89
2023-02-08T17:29:13.036Z,103527.02
2023-02-08T17:31:41.391Z,103524.30
2023-02-08T17:34:09.243Z,103523.31
2023-02-08T17:36:37.310Z,103518.52
2023-02-08T17:39:06.093Z,103519.05
2023-02-08T17:41:35.543Z,103517.45
2023-02-08T17:44:04.255Z,103517.41
2023-02-08T17:46:32.978Z,103515.34
2023-02-08T17:49:01.933Z,103519.05
2023-02-08T17:51:31.070Z,103523.48
2023-02-08T17:53:59.340Z,103527.05
2023-02-08T17:56:28.750Z,103523.36
2023-02-08T17:58:59.287Z,103516.20
2023-02-08T18:01:27.327Z,103514.84
2023-02-08T18:03:55.785Z,103515.76
2023-02-08T18:06:25.102Z,103512.34
2023-02-08T18:08:54.875Z,103510.00
2023-02-08T18:11:24.240Z,103506.56
2023-02-08T18:13:53.834Z,103511.77
2023-02-08T18:16:27.349Z,103510.84
2023-02-08T18:19:02.047Z,103511.48
2023-02-08T18:21:33.124Z,103509.45
2023-02-08T18:24:05.595Z,103507.17
2023-02-08T18:26:34.637Z,103503.20
2023-02-08T18:29:03.514Z,103502.16
2023-02-08T18:31:32.201Z,103502.90
2023-02-08T18:34:00.245Z,103505.77
2023-02-08T18:36:28.136Z,103502.83
2023-02-08T18:38:56.997Z,103507.29
2023-02-08T18:41:28.057Z,103502.61
2023-02-08T18:43:58.308Z,103500.91
2023-02-08T18:46:28.490Z,103500.79
2023-02-08T18:48:56.979Z,103501.38
2023-02-08T18:51:26.478Z,103500.20
2023-02-08T18:53:55.102Z,103495.64
2023-02-08T18:56:25.295Z,103496.27
2023-02-08T18:58:55.636Z,103490.83
2023-02-08T19:01:24.993Z,103489.46
2023-02-08T19:03:54.245Z,103487.89
2023-02-08T19:06:25.523Z,103483.52
2023-02-08T19:08:56.033Z,103479.58
2023-02-08T19:11:26.924Z,103477.92
2023-02-08T19:14:01.865Z,103468.16
2023-02-08T19:16:31.493Z,103468.54
2023-02-08T19:19:01.237Z,103461.34
2023-02-08T19:21:30.774Z,103452.38
2023-02-08T19:24:00.709Z,103445.86
2023-02-08T19:26:39.889Z,103440.59
2023-02-08T19:29:14.234Z,103435.64
2023-02-08T19:31:42.735Z,103431.42
2023-02-08T19:34:12.357Z,103422.98
2023-02-08T19:36:49.690Z,103418.03
2023-02-08T19:39:22.637Z,103415.40
2023-02-08T19:41:52.924Z,103419.95
2023-02-08T19:44:22.749Z,103415.61
2023-02-08T19:46:55.293Z,103414.89
2023-02-08T19:49:26.031Z,103409.81
2023-02-08T19:51:54.903Z,103410.58
2023-02-08T19:54:23.212Z,103410.27
2023-02-08T19:56:54.736Z,103410.63
2023-02-08T19:59:29.320Z,103408.17
2023-02-08T20:01:58.266Z,103404.14
2023-02-08T20:04:26.498Z,103400.11
2023-02-08T20:06:54.710Z,103400.27
2023-02-08T20:09:22.607Z,103396.59
2023-02-08T20:11:59.726Z,103394.80
2023-02-08T20:14:31.126Z,103392.69
2023-02-08T20:17:00.202Z,103389.57
2023-02-08T20:19:29.378Z,103391.71
2023-02-08T20:21:57.374Z,103390.71
2023-02-08T20:24:25.372Z,103386.89
2023-02-08T20:26:53.428Z,103382.90
2023-02-08T20:29:21.439Z,103376.77
2023-02-08T20:31:55.818Z,103368.20
2023-02-08T20:34:24.431Z,103366.27
2023-02-08T20:37:06.172Z,103359.83
2023-02-08T20:39:36.897Z,103359.13
2023-02-08T20:42:05.437Z,103361.25
2023-02-08T20:44:33.571Z,103360.58
2023-02-08T20:47:01.827Z,103363.57
2023-02-08T20:49:32.217Z,103360.81
2023-02-08T20:52:00.735Z,103358.75
2023-02-08T20:54:28.898Z,103362.66
2023-02-08T20:56:57.319Z,103367.83
2023-02-08T20:59:25.647Z,103371.05
2023-02-08T21:01:53.857Z,103373.52
2023-02-08T21:04:26.364Z,103373.21
2023-02-08T21:06:54.458Z,103368.88
2023-02-08T21:09:22.503Z,103369.96
2023-02-08T21:11:51.766Z,103366.48
2023-02-08T21:14:23.252Z,103364.40
2023-02-08T21:16:55.924Z,103354.91
2023-02-08T21:19:25.876Z,103347.55
2023-02-08T21:21:58.561Z,103338.98
2023-02-08T21:24:27.532Z,103335.12
2023-02-08T21:26:56.800Z,103333.25
2023-02-08T21:29:25.496Z,103330.12
2023-02-08T21:31:54.649Z,103331.06
2023-02-08T21:34:23.163Z,103326.88
2023-02-08T21:36:51.184Z,103321.27
2023-02-08T21:39:19.338Z,103322.52
2023-02-08T21:41:48.417Z,103323.05
2023-02-08T21:44:16.572Z,103320.46
2023-02-08T21:46:44.506Z,103320.14
2023-02-08T21:49:31.668Z,103319.98
2023-02-08T21:52:18.389Z,103310.36
2023-02-08T21:54:53.139Z,103305.80
2023-02-08T21:57:24.447Z,103302.84
2023-02-08T21:59:56.609Z,103303.59
2023-02-08T22:02:28.691Z,103305.36
2023-02-08T22:04:59.196Z,103299.27
2023-02-08T22:07:28.980Z,103298.59
2023-02-08T22:09:58.025Z,103294.56
2023-02-08T22:12:25.965Z,103295.80
2023-02-08T22:14:53.956Z,103294.05
2023-02-08T22:17:21.825Z,103289.35
2023-02-08T22:19:49.750Z,103286.02
2023-02-08T22:22:17.651Z,103283.74
2023-02-08T22:24:45.461Z,103279.21
2023-02-08T22:27:13.402Z,103276.76
2023-02-08T22:29:41.420Z,103278.50
2023-02-08T22:32:10.141Z,103275.92
2023-02-08T22:34:38.538Z,103275.42
2023-02-08T22:37:06.368Z,103273.16
2023-02-08T22:39:35.871Z,103270.55
2023-02-08T22:42:08.603Z,103270.91
2023-02-08T22:44:36.674Z,103273.02
2023-02-08T22:47:08.709Z,103270.04
2023-02-08T22:49:37.940Z,103263.92
2023-02-08T22:52:08.806Z,103261.84
2023-02-08T22:54:36.736Z,103256.58
2023-02-08T22:57:06.203Z,103257.29
2023-02-08T22:59:34.343Z,103256.25
2023-02-08T23:02:02.315Z,103258.19
2023-02-08T23:04:31.180Z,103260.67
2023-02-08T23:07:00.035Z,103260.14
2023-02-08T23:09:27.912Z,103257.70
2023-02-08T23:11:56.247Z,103262.09
2023-02-08T23:14:24.236Z,103263.33
2023-02-08T23:16:52.196Z,103262.28
2023-02-08T23:19:20.034Z,103259.84
2023-02-08T23:21:48.025Z,103260.54
2023-02-08T23:24:15.887Z,103254.42
2023-02-08T23:26:43.795Z,103253.40
2023-02-08T23:29:11.815Z,103251.85
2023-02-08T23:31:41.066Z,103249.42
2023-02-08T23:34:11.518Z,103253.31
2023-02-08T23:36:39.556Z,103253.50
2023-02-08T23:39:08.153Z,103250.18
2023-02-08T23:41:36.028Z,103250.02
2023-02-08T23:44:04.166Z,103246.35
2023-02-08T23:46:32.728Z,103245.13
2023-02-08T23:49:00.901Z,103244.61
2023-02-08T23:51:28.818Z,103237.98
2023-02-08T23:53:56.853Z,103233.45
2023-02-08T23:56:32.000Z,103231.21
2023-02-08T23:59:00.605Z,103227.73
